QTR72 KDEN-LEZL
Flight info
| Callsign | QTR72 |
|---|---|
| Flight time | N/A |
| Altitude | 33000 |
| Route | PLAIN2 HCT J60 LNK J146 IOW/N0486F350 J146 JOT J87 OBK J547 FNT Q824 HOCKE Q905 SIKBO Q907 MIILS N405B IBERG/M084F350 DCT 49N050W 48N040W 46N030W 43N020W/M084F370 DCT BANAL/N0477F370 DCT SOPOP DCT FERFE DCT LASIB M744 SANTA |
| Aircraft | B77W/H-SDE1E2E3FGHIJ2J3J4J5M1RWXY/LB1D1 |
Departure
| Time | N/A |
|---|---|
| Airport | Denver International Airport (KDEN) |
Arrival
| Time | 2026-04-24 23:17 |
|---|---|
| Airport | Seville Airport (LEZL) |
| Time | Latitude | Longitude | Altitude | Speed | Heading |
|---|---|---|---|---|---|
| 2026-04-24 16:49 | 45.09519 | -74.93363 | 35003 ft | 487 kts | 66° |
| 2026-04-24 16:50 | 45.11754 | -74.84304 | 35025 ft | 487 kts | 66° |
| 2026-04-24 16:50 | 45.13991 | -74.75243 | 35009 ft | 487 kts | 65° |
| 2026-04-24 16:51 | 45.16372 | -74.66278 | 34992 ft | 485 kts | 64° |
| 2026-04-24 16:51 | 45.18799 | -74.57364 | 34995 ft | 484 kts | 64° |
| 2026-04-24 16:52 | 45.21199 | -74.48448 | 34990 ft | 484 kts | 64° |
| 2026-04-24 16:52 | 45.23572 | -74.39531 | 35012 ft | 483 kts | 64° |
| 2026-04-24 16:53 | 45.25934 | -74.30593 | 35002 ft | 483 kts | 64° |
| 2026-04-24 16:53 | 45.28284 | -74.21664 | 35003 ft | 483 kts | 64° |
| 2026-04-24 16:54 | 45.30627 | -74.12735 | 34990 ft | 482 kts | 64° |
| 2026-04-24 16:54 | 45.32959 | -74.03814 | 35000 ft | 482 kts | 64° |
| 2026-04-24 16:55 | 45.35284 | -73.94886 | 34996 ft | 482 kts | 64° |
| 2026-04-24 16:55 | 45.37620 | -73.85883 | 34999 ft | 482 kts | 64° |
| 2026-04-24 16:56 | 45.39917 | -73.76996 | 34999 ft | 482 kts | 64° |
| 2026-04-24 16:56 | 45.42222 | -73.68046 | 35008 ft | 482 kts | 64° |
| 2026-04-24 16:57 | 45.44525 | -73.59065 | 34999 ft | 483 kts | 64° |
| 2026-04-24 16:57 | 45.46822 | -73.50073 | 34996 ft | 483 kts | 64° |
| 2026-04-24 16:58 | 45.49113 | -73.41070 | 35006 ft | 484 kts | 64° |
| 2026-04-24 16:58 | 45.51400 | -73.32049 | 35003 ft | 483 kts | 64° |
| 2026-04-24 16:59 | 45.53677 | -73.23030 | 34999 ft | 483 kts | 64° |
| 2026-04-24 17:00 | 45.57077 | -73.09492 | 35003 ft | 483 kts | 64° |
| 2026-04-24 17:00 | 45.60462 | -72.95944 | 35046 ft | 483 kts | 64° |
| 2026-04-24 17:01 | 45.63831 | -72.82375 | 35013 ft | 483 kts | 64° |
| 2026-04-24 17:02 | 45.67181 | -72.68801 | 35007 ft | 482 kts | 64° |
| 2026-04-24 17:02 | 45.69396 | -72.59778 | 34998 ft | 481 kts | 64° |
| 2026-04-24 17:03 | 45.72698 | -72.46264 | 35013 ft | 479 kts | 64° |
| 2026-04-24 17:04 | 45.74890 | -72.37249 | 34993 ft | 479 kts | 64° |
| 2026-04-24 17:04 | 45.78158 | -72.23740 | 34979 ft | 478 kts | 64° |
| 2026-04-24 17:05 | 45.80328 | -72.14727 | 34989 ft | 478 kts | 64° |
| 2026-04-24 17:06 | 45.83564 | -72.01212 | 34968 ft | 478 kts | 65° |
| 2026-04-24 17:06 | 45.86784 | -71.87684 | 34969 ft | 477 kts | 65° |
| 2026-04-24 17:07 | 45.88918 | -71.78671 | 34970 ft | 477 kts | 65° |
| 2026-04-24 17:08 | 45.93162 | -71.60643 | 34975 ft | 476 kts | 65° |
| 2026-04-24 17:08 | 45.95267 | -71.51639 | 34976 ft | 475 kts | 65° |
| 2026-04-24 17:09 | 45.99462 | -71.33595 | 34968 ft | 475 kts | 65° |
| 2026-04-24 17:10 | 46.03622 | -71.15551 | 34960 ft | 475 kts | 65° |
| 2026-04-24 17:12 | 46.11867 | -70.79336 | 34952 ft | 477 kts | 66° |
| 2026-04-24 18:54 | 49.00250 | -51.64239 | 35754 ft | 455 kts | 91° |
| 2026-04-24 18:55 | 49.00299 | -51.54656 | 35407 ft | 450 kts | 91° |
| 2026-04-24 18:55 | 49.00322 | -51.49898 | 35240 ft | 448 kts | 91° |
| 2026-04-24 18:55 | 49.00341 | -51.45172 | 35053 ft | 446 kts | 91° |
| 2026-04-24 18:56 | 49.00359 | -51.40459 | 34885 ft | 444 kts | 91° |
| 2026-04-24 18:56 | 49.00375 | -51.35767 | 34767 ft | 442 kts | 91° |
| 2026-04-24 18:56 | 49.00389 | -51.31104 | 34715 ft | 440 kts | 91° |
| 2026-04-24 18:57 | 49.00409 | -51.21790 | 34667 ft | 440 kts | 91° |
| 2026-04-24 18:57 | 49.00422 | -51.12344 | 34748 ft | 453 kts | 91° |
| 2026-04-24 18:58 | 49.00427 | -51.02645 | 34971 ft | 462 kts | 91° |
| 2026-04-24 18:58 | 49.00425 | -50.92783 | 35264 ft | 468 kts | 92° |
| 2026-04-24 18:58 | 49.00422 | -50.87824 | 35531 ft | 468 kts | 92° |
| 2026-04-24 18:59 | 49.00416 | -50.82875 | 35812 ft | 467 kts | 92° |
| 2026-04-24 18:59 | 49.00409 | -50.77924 | 36059 ft | 468 kts | 92° |
| 2026-04-24 18:59 | 49.00398 | -50.72968 | 36284 ft | 469 kts | 92° |
| 2026-04-24 18:59 | 49.00386 | -50.67994 | 36509 ft | 469 kts | 92° |
| 2026-04-24 19:00 | 49.00371 | -50.63016 | 36595 ft | 472 kts | 92° |
| 2026-04-24 19:00 | 49.00334 | -50.53019 | 36669 ft | 472 kts | 92° |
| 2026-04-24 19:01 | 49.00290 | -50.43063 | 36661 ft | 469 kts | 92° |
| 2026-04-24 19:01 | 49.00238 | -50.33148 | 36667 ft | 468 kts | 92° |
| 2026-04-24 19:02 | 49.00187 | -50.24921 | 36662 ft | 468 kts | 92° |
| 2026-04-24 19:02 | 49.00107 | -50.13335 | 36663 ft | 469 kts | 92° |
| 2026-04-24 19:03 | 49.00030 | -50.03466 | 36653 ft | 470 kts | 93° |
| 2026-04-24 19:03 | 48.99702 | -49.93532 | 36678 ft | 470 kts | 97° |
| 2026-04-24 19:04 | 48.99123 | -49.83603 | 36659 ft | 472 kts | 97° |
| 2026-04-24 19:04 | 48.98517 | -49.73561 | 36674 ft | 474 kts | 97° |
| 2026-04-24 19:05 | 48.97928 | -49.63622 | 36666 ft | 475 kts | 97° |
| 2026-04-24 19:05 | 48.97333 | -49.53531 | 36666 ft | 476 kts | 97° |
| 2026-04-24 19:06 | 48.96739 | -49.43566 | 36668 ft | 476 kts | 97° |
| 2026-04-24 19:06 | 48.96133 | -49.33548 | 36660 ft | 475 kts | 98° |
| 2026-04-24 19:07 | 48.95518 | -49.23533 | 36664 ft | 475 kts | 98° |
| 2026-04-24 19:07 | 48.94995 | -49.15153 | 36667 ft | 475 kts | 98° |
| 2026-04-24 19:08 | 48.94260 | -49.03526 | 36672 ft | 475 kts | 98° |
| 2026-04-24 19:08 | 48.93618 | -48.93519 | 36671 ft | 476 kts | 98° |
| 2026-04-24 19:09 | 48.92967 | -48.83502 | 36660 ft | 476 kts | 99° |
| 2026-04-24 19:09 | 48.92307 | -48.73485 | 36671 ft | 476 kts | 99° |
| 2026-04-24 19:10 | 48.91638 | -48.63466 | 36674 ft | 477 kts | 99° |
| 2026-04-24 19:10 | 48.90959 | -48.53435 | 36674 ft | 477 kts | 99° |
| 2026-04-24 19:11 | 48.90271 | -48.43400 | 36669 ft | 477 kts | 99° |
| 2026-04-24 19:11 | 48.89574 | -48.33362 | 36666 ft | 478 kts | 99° |
| 2026-04-24 19:12 | 48.88867 | -48.23303 | 36676 ft | 479 kts | 99° |
| 2026-04-24 19:12 | 48.88149 | -48.13231 | 36682 ft | 480 kts | 99° |
| 2026-04-24 19:13 | 48.87540 | -48.04780 | 36678 ft | 481 kts | 99° |
| 2026-04-24 19:13 | 48.86685 | -47.93051 | 36682 ft | 481 kts | 99° |
| 2026-04-24 19:14 | 48.85939 | -47.82957 | 36687 ft | 481 kts | 99° |
| 2026-04-24 19:14 | 48.85184 | -47.72864 | 36669 ft | 481 kts | 100° |
| 2026-04-24 19:15 | 48.84421 | -47.62784 | 36682 ft | 481 kts | 100° |
| 2026-04-24 19:15 | 48.83648 | -47.52688 | 36688 ft | 482 kts | 100° |
| 2026-04-24 19:16 | 48.82469 | -47.37519 | 36690 ft | 483 kts | 100° |
| 2026-04-24 19:16 | 48.81671 | -47.27400 | 36679 ft | 483 kts | 100° |
| 2026-04-24 19:17 | 48.80863 | -47.17268 | 36693 ft | 484 kts | 100° |
| 2026-04-24 19:17 | 48.80047 | -47.07143 | 36691 ft | 484 kts | 100° |
| 2026-04-24 19:18 | 48.79221 | -46.97011 | 36696 ft | 484 kts | 101° |
| 2026-04-24 19:18 | 48.78385 | -46.86883 | 36689 ft | 485 kts | 101° |
| 2026-04-24 19:19 | 48.77539 | -46.76731 | 36703 ft | 485 kts | 101° |
| 2026-04-24 19:19 | 48.76683 | -46.66570 | 36702 ft | 486 kts | 101° |
| 2026-04-24 19:20 | 48.75817 | -46.56397 | 36702 ft | 487 kts | 101° |
| 2026-04-24 19:20 | 48.74940 | -46.46216 | 36697 ft | 487 kts | 101° |
| 2026-04-24 19:21 | 48.74055 | -46.36031 | 36700 ft | 488 kts | 101° |
| 2026-04-24 19:21 | 48.73160 | -46.25850 | 36698 ft | 487 kts | 101° |
| 2026-04-24 19:22 | 48.72256 | -46.15670 | 36686 ft | 487 kts | 101° |
| 2026-04-24 19:22 | 48.71343 | -46.05499 | 36706 ft | 488 kts | 101° |
| 2026-04-24 19:23 | 48.70420 | -45.95323 | 36708 ft | 488 kts | 101° |
| 2026-04-24 19:23 | 48.69487 | -45.85132 | 36706 ft | 489 kts | 101° |
| 2026-04-24 19:24 | 48.68544 | -45.74933 | 36701 ft | 490 kts | 101° |
| 2026-04-24 19:24 | 48.67592 | -45.64731 | 36707 ft | 490 kts | 102° |
| 2026-04-24 19:25 | 48.66629 | -45.54527 | 36711 ft | 490 kts | 102° |
| 2026-04-24 19:25 | 48.65656 | -45.44310 | 36708 ft | 491 kts | 102° |
| 2026-04-24 19:26 | 48.64674 | -45.34092 | 36701 ft | 491 kts | 101° |
| 2026-04-24 19:26 | 48.63681 | -45.23867 | 36718 ft | 492 kts | 101° |
| 2026-04-24 19:27 | 48.62678 | -45.13630 | 36715 ft | 493 kts | 102° |
| 2026-04-24 19:27 | 48.61664 | -45.03384 | 36722 ft | 494 kts | 102° |
| 2026-04-24 19:28 | 48.60645 | -44.93175 | 36718 ft | 495 kts | 102° |
| 2026-04-24 19:28 | 48.59603 | -44.82833 | 36714 ft | 495 kts | 102° |
| 2026-04-24 19:29 | 48.58031 | -44.67413 | 36712 ft | 495 kts | 102° |
| 2026-04-24 19:30 | 48.56970 | -44.57127 | 36716 ft | 496 kts | 102° |
| 2026-04-24 19:30 | 48.55906 | -44.46904 | 36736 ft | 497 kts | 102° |
| 2026-04-24 19:31 | 48.54817 | -44.36524 | 36725 ft | 498 kts | 102° |
| 2026-04-24 19:31 | 48.53908 | -44.27943 | 36727 ft | 499 kts | 102° |
| 2026-04-24 19:32 | 48.52626 | -44.15935 | 36716 ft | 499 kts | 102° |
| 2026-04-24 19:32 | 48.51512 | -44.05595 | 36722 ft | 500 kts | 102° |
| 2026-04-24 19:33 | 48.50386 | -43.95244 | 36721 ft | 500 kts | 102° |
| 2026-04-24 19:33 | 48.49443 | -43.86642 | 36723 ft | 500 kts | 102° |
| 2026-04-24 19:34 | 48.48299 | -43.76290 | 36717 ft | 501 kts | 102° |
| 2026-04-24 19:34 | 48.47146 | -43.65933 | 36714 ft | 501 kts | 102° |
| 2026-04-24 19:35 | 48.45983 | -43.55585 | 36740 ft | 501 kts | 102° |
| 2026-04-24 19:35 | 48.44809 | -43.45225 | 36739 ft | 502 kts | 102° |
| 2026-04-24 19:36 | 48.43624 | -43.34854 | 36726 ft | 502 kts | 102° |
| 2026-04-24 19:36 | 48.42430 | -43.24499 | 36732 ft | 502 kts | 102° |
| 2026-04-24 19:37 | 48.41227 | -43.14137 | 36739 ft | 502 kts | 102° |
| 2026-04-24 19:37 | 48.40014 | -43.03781 | 36737 ft | 503 kts | 103° |
| 2026-04-24 19:38 | 48.38791 | -42.93424 | 36740 ft | 503 kts | 103° |
| 2026-04-24 19:38 | 48.37560 | -42.83082 | 36739 ft | 503 kts | 103° |
| 2026-04-24 19:39 | 48.36318 | -42.72735 | 36739 ft | 503 kts | 103° |
| 2026-04-24 19:39 | 48.35068 | -42.62396 | 36739 ft | 503 kts | 103° |
| 2026-04-24 19:40 | 48.33808 | -42.52059 | 36743 ft | 503 kts | 103° |
| 2026-04-24 19:40 | 48.32547 | -42.41797 | 36742 ft | 503 kts | 103° |
| 2026-04-24 19:41 | 48.31267 | -42.31463 | 36736 ft | 503 kts | 102° |
| 2026-04-24 19:41 | 48.29978 | -42.21129 | 36747 ft | 503 kts | 102° |
| 2026-04-24 19:42 | 48.28679 | -42.10794 | 36747 ft | 504 kts | 102° |
| 2026-04-24 19:42 | 48.27370 | -42.00462 | 36749 ft | 504 kts | 103° |
| 2026-04-24 19:43 | 48.26050 | -41.90122 | 36748 ft | 505 kts | 103° |
| 2026-04-24 19:43 | 48.24719 | -41.79775 | 36748 ft | 505 kts | 103° |
| 2026-04-24 19:44 | 48.23379 | -41.69430 | 36741 ft | 505 kts | 103° |
| 2026-04-24 19:44 | 48.22029 | -41.59094 | 36744 ft | 505 kts | 102° |
| 2026-04-24 19:45 | 48.20671 | -41.48764 | 36750 ft | 505 kts | 102° |
| 2026-04-24 19:45 | 48.19302 | -41.38428 | 36748 ft | 506 kts | 103° |
| 2026-04-24 19:46 | 48.17923 | -41.28092 | 36754 ft | 506 kts | 103° |
| 2026-04-24 19:46 | 48.16533 | -41.17755 | 36753 ft | 506 kts | 103° |
| 2026-04-24 19:47 | 48.15135 | -41.07425 | 36753 ft | 506 kts | 103° |
| 2026-04-24 19:47 | 48.13728 | -40.97106 | 36753 ft | 506 kts | 103° |
| 2026-04-24 19:48 | 48.12311 | -40.86787 | 36756 ft | 506 kts | 103° |
| 2026-04-24 19:48 | 48.10170 | -40.71327 | 36747 ft | 506 kts | 103° |
| 2026-04-24 19:49 | 48.07284 | -40.50750 | 36761 ft | 506 kts | 103° |
| 2026-04-24 19:50 | 48.04360 | -40.30179 | 36760 ft | 506 kts | 103° |
| 2026-04-24 19:51 | 48.02142 | -40.14754 | 36753 ft | 506 kts | 103° |
| 2026-04-24 19:52 | 47.99903 | -39.99333 | 36764 ft | 507 kts | 103° |
| 2026-04-24 19:52 | 47.98364 | -39.89058 | 36761 ft | 507 kts | 104° |
| 2026-04-24 19:53 | 47.96797 | -39.78789 | 36761 ft | 508 kts | 104° |
| 2026-04-24 19:54 | 47.94446 | -39.63457 | 36757 ft | 508 kts | 104° |
| 2026-04-24 19:54 | 47.92864 | -39.53192 | 36766 ft | 508 kts | 104° |
| 2026-04-24 19:55 | 47.91532 | -39.44595 | 36763 ft | 508 kts | 104° |
| 2026-04-24 19:55 | 47.89662 | -39.32603 | 36771 ft | 508 kts | 104° |
| 2026-04-24 19:56 | 47.88062 | -39.22413 | 36755 ft | 508 kts | 104° |
| 2026-04-24 19:56 | 47.86442 | -39.12165 | 36771 ft | 508 kts | 104° |
| 2026-04-24 19:57 | 47.84813 | -39.01921 | 36772 ft | 509 kts | 104° |
| 2026-04-24 19:57 | 47.83174 | -38.91676 | 36769 ft | 509 kts | 104° |
| 2026-04-24 19:58 | 47.81526 | -38.81440 | 36768 ft | 509 kts | 104° |
| 2026-04-24 19:58 | 47.79870 | -38.71216 | 36767 ft | 509 kts | 104° |
| 2026-04-24 19:59 | 47.78203 | -38.60991 | 36781 ft | 509 kts | 105° |
| 2026-04-24 19:59 | 47.76527 | -38.50769 | 36771 ft | 509 kts | 105° |
| 2026-04-24 20:00 | 47.74841 | -38.40552 | 36771 ft | 509 kts | 105° |
| 2026-04-24 20:00 | 47.73148 | -38.30347 | 36779 ft | 509 kts | 105° |
| 2026-04-24 20:01 | 47.71445 | -38.20150 | 36777 ft | 509 kts | 105° |
| 2026-04-24 20:01 | 47.69735 | -38.09963 | 36775 ft | 509 kts | 105° |
| 2026-04-24 20:02 | 47.68305 | -38.01495 | 36775 ft | 509 kts | 105° |
| 2026-04-24 20:02 | 47.66285 | -37.89607 | 36788 ft | 509 kts | 105° |
| 2026-04-24 20:03 | 47.64546 | -37.79432 | 36768 ft | 509 kts | 105° |
| 2026-04-24 20:03 | 47.62799 | -37.69273 | 36781 ft | 508 kts | 105° |
| 2026-04-24 20:04 | 47.61045 | -37.59128 | 36779 ft | 508 kts | 105° |
| 2026-04-24 20:04 | 47.59281 | -37.48985 | 36782 ft | 508 kts | 105° |
| 2026-04-24 20:05 | 47.57507 | -37.38849 | 36787 ft | 508 kts | 105° |
| 2026-04-24 20:05 | 47.55726 | -37.28726 | 36779 ft | 508 kts | 106° |
| 2026-04-24 20:06 | 47.53935 | -37.18600 | 36793 ft | 508 kts | 105° |
| 2026-04-24 20:06 | 47.52135 | -37.08485 | 36787 ft | 508 kts | 105° |
| 2026-04-24 20:07 | 47.50633 | -37.00087 | 36790 ft | 508 kts | 106° |
| 2026-04-24 20:07 | 47.48510 | -36.88286 | 36788 ft | 508 kts | 106° |
| 2026-04-24 20:08 | 47.46698 | -36.78271 | 36789 ft | 508 kts | 106° |
| 2026-04-24 20:08 | 47.44865 | -36.68197 | 36792 ft | 507 kts | 106° |
| 2026-04-24 20:09 | 47.43025 | -36.58137 | 36790 ft | 508 kts | 106° |
| 2026-04-24 20:09 | 47.41175 | -36.48080 | 36805 ft | 508 kts | 106° |
| 2026-04-24 20:10 | 47.39316 | -36.38026 | 36795 ft | 507 kts | 106° |
| 2026-04-24 20:10 | 47.37449 | -36.27989 | 36799 ft | 507 kts | 106° |
| 2026-04-24 20:11 | 47.35576 | -36.17968 | 36798 ft | 507 kts | 106° |
| 2026-04-24 20:11 | 47.33696 | -36.07967 | 36805 ft | 506 kts | 107° |
| 2026-04-24 20:12 | 47.31807 | -35.97972 | 36800 ft | 506 kts | 107° |
| 2026-04-24 20:12 | 47.29912 | -35.87994 | 36800 ft | 506 kts | 107° |
| 2026-04-24 20:13 | 47.28007 | -35.78019 | 36801 ft | 506 kts | 107° |
| 2026-04-24 20:13 | 47.26094 | -35.68053 | 36806 ft | 506 kts | 107° |
| 2026-04-24 20:14 | 47.24172 | -35.58097 | 36808 ft | 506 kts | 107° |
| 2026-04-24 20:14 | 47.22240 | -35.48139 | 36794 ft | 506 kts | 107° |
| 2026-04-24 20:15 | 47.20300 | -35.38186 | 36813 ft | 506 kts | 107° |
| 2026-04-24 20:15 | 47.18348 | -35.28228 | 36813 ft | 507 kts | 107° |
| 2026-04-24 20:16 | 47.16386 | -35.18273 | 36814 ft | 507 kts | 107° |
| 2026-04-24 20:16 | 47.14415 | -35.08319 | 36821 ft | 508 kts | 107° |
| 2026-04-24 20:17 | 47.12434 | -34.98365 | 36807 ft | 507 kts | 107° |
| 2026-04-24 20:17 | 47.09451 | -34.83475 | 36822 ft | 507 kts | 108° |
| 2026-04-24 20:18 | 47.07453 | -34.73563 | 36818 ft | 506 kts | 108° |
| 2026-04-24 20:18 | 47.05448 | -34.63667 | 36820 ft | 506 kts | 108° |
| 2026-04-24 20:19 | 47.03776 | -34.55452 | 36808 ft | 506 kts | 108° |
| 2026-04-24 20:19 | 47.01758 | -34.45579 | 36821 ft | 506 kts | 108° |
| 2026-04-24 20:20 | 46.99731 | -34.35716 | 36825 ft | 505 kts | 108° |
| 2026-04-24 20:20 | 46.97697 | -34.25866 | 36825 ft | 505 kts | 108° |
| 2026-04-24 20:21 | 46.95655 | -34.16024 | 36822 ft | 505 kts | 108° |
| 2026-04-24 20:21 | 46.93605 | -34.06190 | 36818 ft | 505 kts | 108° |
| 2026-04-24 20:22 | 46.91547 | -33.96371 | 36824 ft | 505 kts | 108° |
| 2026-04-24 20:22 | 46.89483 | -33.86564 | 36833 ft | 505 kts | 109° |
| 2026-04-24 20:23 | 46.87407 | -33.76756 | 36832 ft | 505 kts | 109° |
| 2026-04-24 20:23 | 46.85326 | -33.66962 | 36827 ft | 505 kts | 109° |
| 2026-04-24 20:24 | 46.83245 | -33.57222 | 36830 ft | 505 kts | 109° |
| 2026-04-24 20:24 | 46.81134 | -33.47383 | 36834 ft | 505 kts | 109° |
| 2026-04-24 20:25 | 46.79024 | -33.37601 | 36838 ft | 505 kts | 109° |
| 2026-04-24 20:25 | 46.76908 | -33.27836 | 36838 ft | 505 kts | 109° |
| 2026-04-24 20:26 | 46.74784 | -33.18078 | 36838 ft | 505 kts | 109° |
| 2026-04-24 20:26 | 46.72650 | -33.08320 | 36843 ft | 505 kts | 109° |
| 2026-04-24 20:27 | 46.70523 | -32.98637 | 36847 ft | 505 kts | 110° |
| 2026-04-24 20:27 | 46.68370 | -32.88884 | 36846 ft | 506 kts | 110° |
| 2026-04-24 20:28 | 46.66209 | -32.79140 | 36845 ft | 505 kts | 110° |
| 2026-04-24 20:28 | 46.64042 | -32.69412 | 36838 ft | 505 kts | 110° |
| 2026-04-24 20:29 | 46.61865 | -32.59689 | 36849 ft | 505 kts | 110° |
| 2026-04-24 20:29 | 46.59681 | -32.49974 | 36848 ft | 505 kts | 110° |
| 2026-04-24 20:30 | 46.57489 | -32.40268 | 36854 ft | 506 kts | 110° |
| 2026-04-24 20:30 | 46.55287 | -32.30564 | 36840 ft | 506 kts | 111° |
| 2026-04-24 20:31 | 46.53079 | -32.20875 | 36849 ft | 505 kts | 111° |
| 2026-04-24 20:31 | 46.50861 | -32.11188 | 36857 ft | 505 kts | 111° |
| 2026-04-24 20:32 | 46.48635 | -32.01511 | 36859 ft | 506 kts | 111° |
| 2026-04-24 20:32 | 46.46399 | -31.91833 | 36855 ft | 506 kts | 111° |
| 2026-04-24 20:33 | 46.44156 | -31.82168 | 36854 ft | 506 kts | 111° |
| 2026-04-24 20:33 | 46.41904 | -31.72509 | 36855 ft | 506 kts | 111° |
| 2026-04-24 20:34 | 46.39644 | -31.62855 | 36856 ft | 506 kts | 111° |
| 2026-04-24 20:34 | 46.37378 | -31.53217 | 36857 ft | 505 kts | 111° |
| 2026-04-24 20:35 | 46.35105 | -31.43593 | 36847 ft | 505 kts | 111° |
| 2026-04-24 20:35 | 46.32825 | -31.33981 | 36858 ft | 505 kts | 112° |
| 2026-04-24 20:36 | 46.30538 | -31.24383 | 36864 ft | 505 kts | 112° |
| 2026-04-24 20:36 | 46.28241 | -31.14785 | 36863 ft | 505 kts | 112° |
| 2026-04-24 20:37 | 46.25937 | -31.05200 | 36864 ft | 505 kts | 112° |
| 2026-04-24 20:37 | 46.23625 | -30.95620 | 36852 ft | 505 kts | 112° |
| 2026-04-24 20:38 | 46.21304 | -30.86046 | 36865 ft | 505 kts | 112° |
| 2026-04-24 20:38 | 46.18975 | -30.76479 | 36869 ft | 505 kts | 112° |
| 2026-04-24 20:39 | 46.16637 | -30.66917 | 36869 ft | 505 kts | 112° |
| 2026-04-24 20:39 | 46.14292 | -30.57366 | 36850 ft | 505 kts | 113° |
| 2026-04-24 20:40 | 46.11937 | -30.47816 | 36861 ft | 506 kts | 113° |
| 2026-04-24 20:40 | 46.09590 | -30.38336 | 36878 ft | 506 kts | 113° |
| 2026-04-24 20:41 | 46.07218 | -30.28797 | 36877 ft | 506 kts | 113° |
| 2026-04-24 20:41 | 46.04839 | -30.19268 | 36873 ft | 506 kts | 113° |
| 2026-04-24 20:42 | 46.02452 | -30.09746 | 36873 ft | 506 kts | 113° |
| 2026-04-24 20:42 | 46.00060 | -30.00238 | 36877 ft | 506 kts | 113° |
| 2026-04-24 20:43 | 45.97705 | -29.90704 | 36876 ft | 506 kts | 112° |
| 2026-04-24 20:43 | 45.95388 | -29.81158 | 36877 ft | 506 kts | 112° |
| 2026-04-24 20:44 | 45.93064 | -29.71618 | 36859 ft | 506 kts | 113° |
| 2026-04-24 20:44 | 45.90722 | -29.62088 | 36877 ft | 506 kts | 113° |
| 2026-04-24 20:45 | 45.88371 | -29.52576 | 36885 ft | 506 kts | 113° |
| 2026-04-24 20:45 | 45.86009 | -29.43065 | 36882 ft | 506 kts | 113° |
| 2026-04-24 20:46 | 45.83638 | -29.33556 | 36866 ft | 506 kts | 113° |
| 2026-04-24 20:46 | 45.81260 | -29.24057 | 36889 ft | 506 kts | 113° |
| 2026-04-24 20:47 | 45.78874 | -29.14563 | 36888 ft | 506 kts | 113° |
| 2026-04-24 20:47 | 45.76479 | -29.05078 | 36891 ft | 507 kts | 113° |
| 2026-04-24 20:48 | 45.74076 | -28.95595 | 36893 ft | 507 kts | 114° |
| 2026-04-24 20:48 | 45.71664 | -28.86115 | 36885 ft | 506 kts | 114° |
| 2026-04-24 20:49 | 45.69245 | -28.76652 | 36892 ft | 506 kts | 114° |
| 2026-04-24 20:49 | 45.66819 | -28.67196 | 36897 ft | 507 kts | 114° |
| 2026-04-24 20:50 | 45.64385 | -28.57748 | 36896 ft | 507 kts | 114° |
| 2026-04-24 20:50 | 45.61941 | -28.48301 | 36879 ft | 507 kts | 114° |
| 2026-04-24 20:51 | 45.59490 | -28.38866 | 36892 ft | 507 kts | 114° |
| 2026-04-24 20:51 | 45.57032 | -28.29441 | 36901 ft | 507 kts | 114° |
| 2026-04-24 20:52 | 45.54564 | -28.20015 | 36906 ft | 507 kts | 114° |
| 2026-04-24 20:52 | 45.52086 | -28.10588 | 36903 ft | 507 kts | 114° |
| 2026-04-24 20:53 | 45.49603 | -28.01180 | 36894 ft | 507 kts | 114° |
| 2026-04-24 20:53 | 45.47111 | -27.91776 | 36908 ft | 507 kts | 114° |
| 2026-04-24 20:54 | 45.44609 | -27.82375 | 36905 ft | 507 kts | 114° |
| 2026-04-24 20:54 | 45.42102 | -27.72988 | 36911 ft | 508 kts | 114° |
| 2026-04-24 20:55 | 45.39583 | -27.63597 | 36910 ft | 508 kts | 114° |
| 2026-04-24 20:55 | 45.37057 | -27.54213 | 36913 ft | 508 kts | 114° |
| 2026-04-24 20:56 | 45.34540 | -27.44902 | 36909 ft | 508 kts | 115° |
| 2026-04-24 20:56 | 45.31998 | -27.35532 | 36910 ft | 508 kts | 115° |
| 2026-04-24 20:57 | 45.29450 | -27.26177 | 36910 ft | 508 kts | 115° |
| 2026-04-24 20:57 | 45.26894 | -27.16832 | 36912 ft | 508 kts | 115° |
| 2026-04-24 20:58 | 45.24329 | -27.07487 | 36918 ft | 508 kts | 115° |
| 2026-04-24 20:58 | 45.21755 | -26.98148 | 36918 ft | 509 kts | 115° |
| 2026-04-24 20:59 | 45.19170 | -26.88807 | 36920 ft | 509 kts | 115° |
| 2026-04-24 20:59 | 45.16577 | -26.79470 | 36923 ft | 509 kts | 115° |
| 2026-04-24 21:00 | 45.13979 | -26.70149 | 36921 ft | 509 kts | 115° |
| 2026-04-24 21:00 | 45.11369 | -26.60823 | 36923 ft | 509 kts | 115° |
| 2026-04-24 21:01 | 45.08751 | -26.51506 | 36930 ft | 509 kts | 115° |
| 2026-04-24 21:01 | 45.06126 | -26.42198 | 36898 ft | 510 kts | 115° |
| 2026-04-24 21:02 | 45.03495 | -26.32901 | 36921 ft | 509 kts | 115° |
| 2026-04-24 21:02 | 45.00854 | -26.23607 | 36931 ft | 509 kts | 115° |
| 2026-04-24 21:03 | 44.98207 | -26.14328 | 36924 ft | 510 kts | 115° |
| 2026-04-24 21:03 | 44.95551 | -26.05049 | 36934 ft | 510 kts | 116° |
| 2026-04-24 21:04 | 44.92886 | -25.95776 | 36927 ft | 509 kts | 116° |
| 2026-04-24 21:04 | 44.90668 | -25.88085 | 36934 ft | 509 kts | 116° |
| 2026-04-24 21:05 | 44.87991 | -25.78833 | 36937 ft | 509 kts | 116° |
| 2026-04-24 21:05 | 44.85306 | -25.69588 | 36934 ft | 510 kts | 116° |
| 2026-04-24 21:06 | 44.82615 | -25.60357 | 36923 ft | 509 kts | 116° |
| 2026-04-24 21:06 | 44.79915 | -25.51127 | 36938 ft | 509 kts | 116° |
| 2026-04-24 21:07 | 44.77210 | -25.41913 | 36937 ft | 509 kts | 116° |
| 2026-04-24 21:07 | 44.74498 | -25.32713 | 36944 ft | 509 kts | 116° |
| 2026-04-24 21:08 | 44.71775 | -25.23510 | 36916 ft | 510 kts | 116° |
| 2026-04-24 21:08 | 44.69045 | -25.14314 | 36945 ft | 510 kts | 116° |
| 2026-04-24 21:09 | 44.66305 | -25.05119 | 36951 ft | 511 kts | 117° |
| 2026-04-24 21:09 | 44.63554 | -24.95921 | 36947 ft | 511 kts | 117° |
| 2026-04-24 21:10 | 44.60795 | -24.86728 | 36952 ft | 511 kts | 117° |
| 2026-04-24 21:10 | 44.58027 | -24.77537 | 36949 ft | 511 kts | 117° |
| 2026-04-24 21:11 | 44.55250 | -24.68353 | 36955 ft | 511 kts | 117° |
| 2026-04-24 21:11 | 44.52466 | -24.59179 | 36960 ft | 512 kts | 117° |
| 2026-04-24 21:12 | 44.49673 | -24.50006 | 36962 ft | 512 kts | 117° |
| 2026-04-24 21:12 | 44.46874 | -24.40845 | 36956 ft | 511 kts | 117° |
| 2026-04-24 21:13 | 44.44070 | -24.31701 | 36957 ft | 511 kts | 117° |
| 2026-04-24 21:13 | 44.41262 | -24.22578 | 36969 ft | 511 kts | 118° |
| 2026-04-24 21:14 | 44.38444 | -24.13456 | 36972 ft | 511 kts | 118° |
| 2026-04-24 21:14 | 44.35622 | -24.04352 | 36956 ft | 510 kts | 118° |
| 2026-04-24 21:15 | 44.32796 | -23.95267 | 36975 ft | 510 kts | 118° |
| 2026-04-24 21:15 | 44.29963 | -23.86192 | 36979 ft | 510 kts | 118° |
| 2026-04-24 21:16 | 44.27123 | -23.77125 | 36980 ft | 510 kts | 118° |
| 2026-04-24 21:16 | 44.24276 | -23.68069 | 36986 ft | 510 kts | 118° |
| 2026-04-24 21:17 | 44.21421 | -23.59019 | 36989 ft | 510 kts | 118° |
| 2026-04-24 21:17 | 44.18559 | -23.49976 | 36992 ft | 510 kts | 118° |
| 2026-04-24 21:18 | 44.15688 | -23.40938 | 36995 ft | 510 kts | 118° |
| 2026-04-24 21:18 | 44.12831 | -23.31972 | 36973 ft | 510 kts | 118° |
| 2026-04-24 21:19 | 44.09948 | -23.22957 | 36996 ft | 510 kts | 118° |
| 2026-04-24 21:19 | 44.07058 | -23.13953 | 37004 ft | 510 kts | 118° |
| 2026-04-24 21:20 | 44.02704 | -23.00444 | 37009 ft | 511 kts | 119° |
| 2026-04-24 21:21 | 43.99793 | -22.91449 | 36989 ft | 511 kts | 119° |
| 2026-04-24 21:21 | 43.96875 | -22.82464 | 37003 ft | 511 kts | 119° |
| 2026-04-24 21:22 | 43.93947 | -22.73481 | 37011 ft | 511 kts | 119° |
| 2026-04-24 21:22 | 43.91013 | -22.64508 | 37009 ft | 511 kts | 119° |
| 2026-04-24 21:23 | 43.88069 | -22.55533 | 36997 ft | 511 kts | 119° |
| 2026-04-24 21:23 | 43.85123 | -22.46585 | 37030 ft | 510 kts | 119° |
| 2026-04-24 21:24 | 43.82169 | -22.37640 | 37017 ft | 511 kts | 119° |
| 2026-04-24 21:24 | 43.79207 | -22.28705 | 37009 ft | 511 kts | 119° |
| 2026-04-24 21:25 | 43.76238 | -22.19775 | 37015 ft | 511 kts | 119° |
| 2026-04-24 21:25 | 43.73265 | -22.10864 | 37027 ft | 510 kts | 120° |
| 2026-04-24 21:26 | 43.70289 | -22.01971 | 37029 ft | 509 kts | 119° |
| 2026-04-24 21:26 | 43.67315 | -21.93116 | 37037 ft | 508 kts | 119° |
| 2026-04-24 21:27 | 43.64335 | -21.84274 | 37037 ft | 507 kts | 120° |
| 2026-04-24 21:27 | 43.61358 | -21.75466 | 37039 ft | 505 kts | 119° |
| 2026-04-24 21:28 | 43.58380 | -21.66687 | 37047 ft | 505 kts | 120° |
| 2026-04-24 21:28 | 43.55402 | -21.57934 | 37047 ft | 504 kts | 120° |
| 2026-04-24 21:29 | 43.52419 | -21.49194 | 37053 ft | 503 kts | 120° |
| 2026-04-24 21:29 | 43.49437 | -21.40486 | 37048 ft | 502 kts | 120° |
| 2026-04-24 21:30 | 43.46453 | -21.31800 | 37058 ft | 501 kts | 120° |
| 2026-04-24 21:30 | 43.43470 | -21.23144 | 37063 ft | 501 kts | 120° |
| 2026-04-24 21:31 | 43.40479 | -21.14495 | 37062 ft | 501 kts | 120° |
| 2026-04-24 21:31 | 43.37483 | -21.05858 | 37074 ft | 500 kts | 120° |
| 2026-04-24 21:32 | 43.34484 | -20.97238 | 37076 ft | 500 kts | 120° |
| 2026-04-24 21:32 | 43.31482 | -20.88637 | 37060 ft | 500 kts | 120° |
| 2026-04-24 21:33 | 43.28474 | -20.80045 | 37076 ft | 500 kts | 120° |
| 2026-04-24 21:33 | 43.25457 | -20.71455 | 37076 ft | 499 kts | 120° |
| 2026-04-24 21:34 | 43.22438 | -20.62884 | 37087 ft | 499 kts | 120° |
| 2026-04-24 21:34 | 43.19432 | -20.54379 | 37081 ft | 499 kts | 120° |
| 2026-04-24 21:35 | 43.16398 | -20.45821 | 37082 ft | 499 kts | 121° |
| 2026-04-24 21:35 | 43.13360 | -20.37274 | 37073 ft | 499 kts | 121° |
| 2026-04-24 21:36 | 43.10313 | -20.28731 | 37089 ft | 499 kts | 121° |
| 2026-04-24 21:36 | 43.07260 | -20.20196 | 37100 ft | 500 kts | 121° |
| 2026-04-24 21:37 | 43.04201 | -20.11668 | 37087 ft | 500 kts | 121° |
| 2026-04-24 21:37 | 43.01147 | -20.03128 | 37103 ft | 501 kts | 118° |
| 2026-04-24 21:38 | 42.98835 | -19.94087 | 37104 ft | 508 kts | 107° |
| 2026-04-24 21:38 | 42.97218 | -19.84680 | 37108 ft | 509 kts | 107° |
| 2026-04-24 21:39 | 42.95608 | -19.75263 | 37103 ft | 510 kts | 107° |
| 2026-04-24 21:39 | 42.93954 | -19.65850 | 37116 ft | 510 kts | 107° |
| 2026-04-24 21:40 | 42.92270 | -19.56444 | 37113 ft | 510 kts | 107° |
| 2026-04-24 21:40 | 42.90577 | -19.47057 | 37114 ft | 510 kts | 107° |
| 2026-04-24 21:41 | 42.88879 | -19.37680 | 37124 ft | 508 kts | 107° |
| 2026-04-24 21:41 | 42.87179 | -19.28332 | 37124 ft | 507 kts | 107° |
| 2026-04-24 21:42 | 42.85476 | -19.19006 | 37128 ft | 507 kts | 107° |
| 2026-04-24 21:42 | 42.83767 | -19.09703 | 37121 ft | 506 kts | 107° |
| 2026-04-24 21:43 | 42.82053 | -19.00415 | 37134 ft | 505 kts | 108° |
| 2026-04-24 21:43 | 42.80331 | -18.91130 | 37137 ft | 505 kts | 108° |
| 2026-04-24 21:44 | 42.78603 | -18.81860 | 37136 ft | 505 kts | 108° |
| 2026-04-24 21:44 | 42.76869 | -18.72597 | 37141 ft | 505 kts | 108° |
| 2026-04-24 21:45 | 42.75124 | -18.63326 | 37141 ft | 506 kts | 108° |
| 2026-04-24 21:45 | 42.73371 | -18.54056 | 37142 ft | 506 kts | 108° |
| 2026-04-24 21:46 | 42.71610 | -18.44790 | 37130 ft | 506 kts | 108° |
| 2026-04-24 21:46 | 42.69840 | -18.35521 | 37143 ft | 507 kts | 108° |
| 2026-04-24 21:47 | 42.68062 | -18.26252 | 37152 ft | 507 kts | 108° |
| 2026-04-24 21:47 | 42.66284 | -18.17028 | 37151 ft | 508 kts | 108° |
| 2026-04-24 21:48 | 42.64485 | -18.07740 | 37144 ft | 509 kts | 108° |
| 2026-04-24 21:48 | 42.62676 | -17.98443 | 37151 ft | 509 kts | 108° |
| 2026-04-24 21:49 | 42.60858 | -17.89145 | 37139 ft | 510 kts | 108° |
| 2026-04-24 21:49 | 42.59032 | -17.79849 | 37158 ft | 510 kts | 108° |
| 2026-04-24 21:50 | 42.57197 | -17.70550 | 37155 ft | 511 kts | 108° |
| 2026-04-24 21:50 | 42.55652 | -17.62753 | 37173 ft | 511 kts | 108° |
| 2026-04-24 21:51 | 42.53798 | -17.53440 | 37158 ft | 512 kts | 108° |
| 2026-04-24 21:51 | 42.51936 | -17.44131 | 37162 ft | 512 kts | 108° |
| 2026-04-24 21:52 | 42.50065 | -17.34821 | 37174 ft | 512 kts | 108° |
| 2026-04-24 21:52 | 42.48187 | -17.25515 | 37164 ft | 512 kts | 108° |
| 2026-04-24 21:53 | 42.46314 | -17.16279 | 37168 ft | 512 kts | 108° |
| 2026-04-24 21:53 | 42.44420 | -17.06980 | 37171 ft | 512 kts | 109° |
| 2026-04-24 21:54 | 42.42518 | -16.97687 | 37173 ft | 512 kts | 108° |
| 2026-04-24 21:54 | 42.40609 | -16.88398 | 37179 ft | 512 kts | 109° |
| 2026-04-24 21:55 | 42.38678 | -16.79049 | 37176 ft | 513 kts | 109° |
| 2026-04-24 21:55 | 42.36766 | -16.69830 | 37172 ft | 512 kts | 109° |
| 2026-04-24 21:56 | 42.34835 | -16.60567 | 37175 ft | 512 kts | 108° |
| 2026-04-24 21:56 | 42.32897 | -16.51306 | 37181 ft | 512 kts | 109° |
| 2026-04-24 21:57 | 42.30950 | -16.42046 | 37182 ft | 512 kts | 109° |
| 2026-04-24 21:57 | 42.28997 | -16.32797 | 37173 ft | 512 kts | 109° |
| 2026-04-24 21:58 | 42.27033 | -16.23540 | 37181 ft | 513 kts | 109° |
| 2026-04-24 21:58 | 42.25063 | -16.14290 | 37180 ft | 513 kts | 109° |
| 2026-04-24 21:59 | 42.23083 | -16.05038 | 37183 ft | 513 kts | 109° |
| 2026-04-24 21:59 | 42.21096 | -15.95791 | 37180 ft | 514 kts | 109° |
| 2026-04-24 22:00 | 42.19097 | -15.86531 | 37192 ft | 514 kts | 109° |
| 2026-04-24 22:00 | 42.17089 | -15.77271 | 37197 ft | 515 kts | 109° |
| 2026-04-24 22:01 | 42.15073 | -15.68010 | 37198 ft | 515 kts | 109° |
| 2026-04-24 22:01 | 42.13049 | -15.58751 | 37186 ft | 515 kts | 108° |
| 2026-04-24 22:02 | 42.11015 | -15.49493 | 37201 ft | 516 kts | 109° |
| 2026-04-24 22:02 | 42.08973 | -15.40233 | 37196 ft | 516 kts | 109° |
| 2026-04-24 22:03 | 42.06923 | -15.30976 | 37191 ft | 516 kts | 109° |
| 2026-04-24 22:03 | 42.04863 | -15.21717 | 37196 ft | 516 kts | 109° |
| 2026-04-24 22:04 | 42.02800 | -15.12470 | 37193 ft | 516 kts | 109° |
| 2026-04-24 22:04 | 42.00551 | -15.03399 | 37186 ft | 513 kts | 116° |
| 2026-04-24 22:05 | 41.97173 | -14.95024 | 37196 ft | 508 kts | 127° |
| 2026-04-24 22:05 | 41.92928 | -14.87486 | 37195 ft | 506 kts | 132° |
| 2026-04-24 22:06 | 41.88578 | -14.80059 | 37211 ft | 506 kts | 131° |
| 2026-04-24 22:06 | 41.84238 | -14.72602 | 37200 ft | 508 kts | 131° |
| 2026-04-24 22:07 | 41.79909 | -14.65116 | 37193 ft | 508 kts | 131° |
| 2026-04-24 22:07 | 41.75578 | -14.57629 | 37190 ft | 509 kts | 131° |
| 2026-04-24 22:08 | 41.71234 | -14.50139 | 37207 ft | 510 kts | 131° |
| 2026-04-24 22:08 | 41.66877 | -14.42650 | 37204 ft | 510 kts | 131° |
| 2026-04-24 22:09 | 41.62513 | -14.35169 | 37207 ft | 510 kts | 131° |
| 2026-04-24 22:09 | 41.58146 | -14.27701 | 37207 ft | 510 kts | 131° |
| 2026-04-24 22:10 | 41.53776 | -14.20246 | 37188 ft | 510 kts | 131° |
| 2026-04-24 22:10 | 41.49401 | -14.12801 | 37207 ft | 510 kts | 131° |
| 2026-04-24 22:11 | 41.45019 | -14.05364 | 37210 ft | 510 kts | 131° |
| 2026-04-24 22:11 | 41.40628 | -13.97928 | 37210 ft | 511 kts | 131° |
| 2026-04-24 22:12 | 41.36232 | -13.90502 | 37210 ft | 511 kts | 131° |
| 2026-04-24 22:12 | 41.31828 | -13.83081 | 37206 ft | 511 kts | 131° |
| 2026-04-24 22:13 | 41.27413 | -13.75660 | 37215 ft | 512 kts | 131° |
| 2026-04-24 22:13 | 41.22991 | -13.68243 | 37213 ft | 513 kts | 131° |
| 2026-04-24 22:14 | 41.18556 | -13.60824 | 37213 ft | 513 kts | 131° |
| 2026-04-24 22:14 | 41.14114 | -13.53410 | 37210 ft | 513 kts | 131° |
| 2026-04-24 22:15 | 41.09666 | -13.46005 | 37208 ft | 513 kts | 131° |
| 2026-04-24 22:15 | 41.05210 | -13.38605 | 37214 ft | 514 kts | 131° |
| 2026-04-24 22:16 | 41.00746 | -13.31208 | 37212 ft | 514 kts | 131° |
| 2026-04-24 22:16 | 40.96272 | -13.23814 | 37211 ft | 514 kts | 131° |
| 2026-04-24 22:17 | 40.91795 | -13.16431 | 37210 ft | 514 kts | 131° |
| 2026-04-24 22:17 | 40.87316 | -13.09064 | 37211 ft | 514 kts | 130° |
| 2026-04-24 22:18 | 40.82827 | -13.01698 | 37213 ft | 515 kts | 130° |
| 2026-04-24 22:18 | 40.78335 | -12.94345 | 37210 ft | 515 kts | 131° |
| 2026-04-24 22:19 | 40.73834 | -12.86994 | 37213 ft | 515 kts | 131° |
| 2026-04-24 22:19 | 40.69331 | -12.79657 | 37212 ft | 515 kts | 131° |
| 2026-04-24 22:20 | 40.64821 | -12.72326 | 37222 ft | 515 kts | 130° |
| 2026-04-24 22:20 | 40.60302 | -12.64999 | 37203 ft | 516 kts | 130° |
| 2026-04-24 22:21 | 40.55777 | -12.57679 | 37213 ft | 516 kts | 130° |
| 2026-04-24 22:21 | 40.51245 | -12.50362 | 37212 ft | 516 kts | 130° |
| 2026-04-24 22:22 | 40.46710 | -12.43057 | 37207 ft | 516 kts | 130° |
| 2026-04-24 22:22 | 40.42240 | -12.35676 | 37207 ft | 516 kts | 128° |
| 2026-04-24 22:23 | 40.37985 | -12.28085 | 37211 ft | 517 kts | 127° |
| 2026-04-24 22:23 | 40.33757 | -12.20463 | 37209 ft | 517 kts | 127° |
| 2026-04-24 22:24 | 40.29509 | -12.12864 | 37207 ft | 517 kts | 127° |
| 2026-04-24 22:24 | 40.25242 | -12.05289 | 37201 ft | 517 kts | 127° |
| 2026-04-24 22:25 | 40.20960 | -11.97717 | 37209 ft | 517 kts | 127° |
| 2026-04-24 22:25 | 40.16675 | -11.90155 | 37206 ft | 518 kts | 127° |
| 2026-04-24 22:26 | 40.12382 | -11.82594 | 37206 ft | 518 kts | 127° |
| 2026-04-24 22:26 | 40.08084 | -11.75042 | 37203 ft | 518 kts | 127° |
| 2026-04-24 22:27 | 40.03779 | -11.67496 | 37198 ft | 518 kts | 127° |
| 2026-04-24 22:27 | 39.99473 | -11.59966 | 37202 ft | 518 kts | 127° |
| 2026-04-24 22:28 | 39.95162 | -11.52445 | 37198 ft | 518 kts | 127° |
| 2026-04-24 22:28 | 39.90848 | -11.44938 | 37199 ft | 518 kts | 127° |
| 2026-04-24 22:29 | 39.84366 | -11.33691 | 37197 ft | 518 kts | 127° |
| 2026-04-24 22:29 | 39.80038 | -11.26203 | 37201 ft | 518 kts | 127° |
| 2026-04-24 22:30 | 39.75706 | -11.18726 | 37200 ft | 517 kts | 127° |
| 2026-04-24 22:30 | 39.71402 | -11.11314 | 37187 ft | 517 kts | 127° |
| 2026-04-24 22:31 | 39.67061 | -11.03858 | 37197 ft | 518 kts | 127° |
| 2026-04-24 22:31 | 39.62716 | -10.96411 | 37196 ft | 518 kts | 127° |
| 2026-04-24 22:32 | 39.58363 | -10.88967 | 37201 ft | 518 kts | 126° |
| 2026-04-24 22:32 | 39.54007 | -10.81538 | 37190 ft | 517 kts | 126° |
| 2026-04-24 22:33 | 39.49656 | -10.74134 | 37188 ft | 516 kts | 126° |
| 2026-04-24 22:33 | 39.45307 | -10.66749 | 37194 ft | 516 kts | 126° |
| 2026-04-24 22:34 | 39.40953 | -10.59374 | 37193 ft | 516 kts | 126° |
| 2026-04-24 22:34 | 39.37303 | -10.53205 | 37203 ft | 515 kts | 126° |
| 2026-04-24 22:35 | 39.32945 | -10.45853 | 37182 ft | 515 kts | 126° |
| 2026-04-24 22:35 | 39.28617 | -10.38569 | 37187 ft | 514 kts | 126° |
| 2026-04-24 22:36 | 39.24261 | -10.31254 | 37191 ft | 514 kts | 126° |
| 2026-04-24 22:36 | 39.19901 | -10.23950 | 37187 ft | 514 kts | 126° |
| 2026-04-24 22:37 | 39.15541 | -10.16661 | 37200 ft | 513 kts | 126° |
| 2026-04-24 22:37 | 39.11157 | -10.09347 | 37181 ft | 511 kts | 126° |
| 2026-04-24 22:38 | 39.06888 | -10.02059 | 37185 ft | 508 kts | 121° |
| 2026-04-24 22:38 | 39.03505 | -9.94127 | 37187 ft | 504 kts | 111° |
| 2026-04-24 22:39 | 39.00672 | -9.85895 | 37190 ft | 503 kts | 111° |
| 2026-04-24 22:39 | 38.97827 | -9.77676 | 37190 ft | 503 kts | 111° |
| 2026-04-24 22:40 | 38.94943 | -9.69467 | 37180 ft | 503 kts | 112° |
| 2026-04-24 22:40 | 38.92043 | -9.61283 | 37186 ft | 504 kts | 112° |
| 2026-04-24 22:41 | 38.89135 | -9.53104 | 37178 ft | 504 kts | 112° |
| 2026-04-24 22:41 | 38.86216 | -9.44911 | 37199 ft | 505 kts | 111° |
| 2026-04-24 22:42 | 38.83292 | -9.36725 | 37173 ft | 505 kts | 112° |
| 2026-04-24 22:42 | 38.80363 | -9.28545 | 37176 ft | 504 kts | 112° |
| 2026-04-24 22:43 | 38.77430 | -9.20379 | 37154 ft | 504 kts | 112° |
| 2026-04-24 22:43 | 38.74497 | -9.12233 | 37149 ft | 504 kts | 112° |
| 2026-04-24 22:44 | 38.71558 | -9.04093 | 37168 ft | 504 kts | 112° |
| 2026-04-24 22:44 | 38.68611 | -8.95955 | 37158 ft | 504 kts | 112° |
| 2026-04-24 22:45 | 38.65658 | -8.87821 | 37164 ft | 504 kts | 112° |
| 2026-04-24 22:45 | 38.62699 | -8.79696 | 37166 ft | 504 kts | 112° |
| 2026-04-24 22:46 | 38.59735 | -8.71575 | 37187 ft | 504 kts | 112° |
| 2026-04-24 22:46 | 38.56764 | -8.63460 | 37149 ft | 504 kts | 112° |
| 2026-04-24 22:47 | 38.53792 | -8.55364 | 37162 ft | 503 kts | 112° |
| 2026-04-24 22:47 | 38.50820 | -8.47286 | 37164 ft | 503 kts | 112° |
| 2026-04-24 22:48 | 38.47841 | -8.39213 | 37146 ft | 503 kts | 112° |
| 2026-04-24 22:48 | 38.44858 | -8.31153 | 37162 ft | 502 kts | 113° |
| 2026-04-24 22:49 | 38.41876 | -8.23114 | 37152 ft | 500 kts | 113° |
| 2026-04-24 22:49 | 38.38899 | -8.15112 | 37145 ft | 499 kts | 113° |
| 2026-04-24 22:50 | 38.35926 | -8.07142 | 37146 ft | 498 kts | 113° |
| 2026-04-24 22:50 | 38.32945 | -7.99169 | 37143 ft | 499 kts | 113° |
| 2026-04-24 22:51 | 38.29953 | -7.91188 | 37126 ft | 500 kts | 113° |
| 2026-04-24 22:51 | 38.26946 | -7.83190 | 37140 ft | 501 kts | 113° |
| 2026-04-24 22:52 | 38.23927 | -7.75178 | 37139 ft | 503 kts | 113° |
| 2026-04-24 22:52 | 38.20897 | -7.67160 | 37144 ft | 503 kts | 113° |
| 2026-04-24 22:53 | 38.17858 | -7.59141 | 37159 ft | 503 kts | 114° |
| 2026-04-24 22:53 | 38.14819 | -7.51140 | 37129 ft | 502 kts | 114° |
| 2026-04-24 22:54 | 38.11788 | -7.43182 | 36926 ft | 503 kts | 114° |
| 2026-04-24 22:54 | 38.10250 | -7.39149 | 36168 ft | 508 kts | 114° |
| 2026-04-24 22:54 | 38.08738 | -7.35194 | 35267 ft | 489 kts | 114° |
| 2026-04-24 22:55 | 38.07250 | -7.31305 | 34401 ft | 491 kts | 114° |
| 2026-04-24 22:55 | 38.05759 | -7.27400 | 33369 ft | 494 kts | 114° |
| 2026-04-24 22:55 | 38.04444 | -7.23377 | 32366 ft | 494 kts | 108° |
| 2026-04-24 22:55 | 38.03424 | -7.19213 | 31374 ft | 493 kts | 104° |
| 2026-04-24 22:56 | 38.02719 | -7.14978 | 30518 ft | 487 kts | 100° |
| 2026-04-24 22:56 | 38.01918 | -7.10820 | 29591 ft | 484 kts | 107° |
| 2026-04-24 22:56 | 38.00748 | -7.06853 | 28823 ft | 478 kts | 113° |
| 2026-04-24 22:56 | 37.99268 | -7.03124 | 28139 ft | 471 kts | 119° |
| 2026-04-24 22:57 | 37.97648 | -6.99550 | 27474 ft | 464 kts | 119° |
| 2026-04-24 22:57 | 37.96088 | -6.96055 | 26817 ft | 459 kts | 119° |
| 2026-04-24 22:57 | 37.94522 | -6.92502 | 26157 ft | 454 kts | 118° |
| 2026-04-24 22:57 | 37.93000 | -6.89028 | 25515 ft | 449 kts | 118° |
| 2026-04-24 22:58 | 37.91495 | -6.85583 | 24882 ft | 444 kts | 118° |
| 2026-04-24 22:58 | 37.90008 | -6.82180 | 24253 ft | 440 kts | 118° |
| 2026-04-24 22:58 | 37.88532 | -6.78805 | 23604 ft | 437 kts | 118° |
| 2026-04-24 22:58 | 37.87067 | -6.75460 | 22880 ft | 433 kts | 118° |
| 2026-04-24 22:59 | 37.85615 | -6.72150 | 22239 ft | 428 kts | 118° |
| 2026-04-24 22:59 | 37.84176 | -6.68874 | 21610 ft | 423 kts | 118° |
| 2026-04-24 22:59 | 37.81345 | -6.62440 | 20419 ft | 415 kts | 118° |
| 2026-04-24 23:00 | 37.79947 | -6.59267 | 19836 ft | 411 kts | 118° |
| 2026-04-24 23:00 | 37.78561 | -6.56124 | 19248 ft | 408 kts | 118° |
| 2026-04-24 23:00 | 37.77182 | -6.53003 | 18675 ft | 405 kts | 118° |
| 2026-04-24 23:00 | 37.75810 | -6.49897 | 18010 ft | 404 kts | 118° |
| 2026-04-24 23:01 | 37.74446 | -6.46812 | 17404 ft | 401 kts | 118° |
| 2026-04-24 23:01 | 37.73093 | -6.43756 | 16801 ft | 397 kts | 118° |
| 2026-04-24 23:01 | 37.71750 | -6.40724 | 16219 ft | 394 kts | 118° |
| 2026-04-24 23:01 | 37.70418 | -6.37719 | 15647 ft | 391 kts | 117° |
| 2026-04-24 23:02 | 37.69092 | -6.34736 | 15071 ft | 388 kts | 117° |
| 2026-04-24 23:02 | 37.67883 | -6.31728 | 14520 ft | 382 kts | 110° |
| 2026-04-24 23:02 | 37.67089 | -6.28551 | 13978 ft | 378 kts | 101° |
| 2026-04-24 23:02 | 37.66650 | -6.25299 | 13352 ft | 374 kts | 93° |
| 2026-04-24 23:03 | 37.66513 | -6.22035 | 12771 ft | 370 kts | 91° |
| 2026-04-24 23:03 | 37.66391 | -6.18809 | 12231 ft | 367 kts | 91° |
| 2026-04-24 23:03 | 37.66265 | -6.15600 | 11668 ft | 365 kts | 92° |
| 2026-04-24 23:03 | 37.66132 | -6.12410 | 11145 ft | 362 kts | 92° |
| 2026-04-24 23:04 | 37.65998 | -6.09283 | 10958 ft | 350 kts | 92° |
| 2026-04-24 23:04 | 37.65865 | -6.06276 | 10804 ft | 338 kts | 92° |
| 2026-04-24 23:04 | 37.65735 | -6.03373 | 10658 ft | 326 kts | 92° |
| 2026-04-24 23:04 | 37.65609 | -6.00558 | 10524 ft | 315 kts | 92° |
| 2026-04-24 23:05 | 37.65486 | -5.97843 | 10394 ft | 305 kts | 92° |
| 2026-04-24 23:05 | 37.65367 | -5.95216 | 10268 ft | 295 kts | 92° |
| 2026-04-24 23:05 | 37.65252 | -5.92674 | 10140 ft | 285 kts | 92° |
| 2026-04-24 23:05 | 37.65140 | -5.90236 | 9834 ft | 270 kts | 92° |
| 2026-04-24 23:06 | 37.65034 | -5.87914 | 9565 ft | 263 kts | 91° |
| 2026-04-24 23:06 | 37.64929 | -5.85620 | 9253 ft | 261 kts | 91° |
| 2026-04-24 23:06 | 37.64825 | -5.83339 | 8959 ft | 259 kts | 91° |
| 2026-04-24 23:06 | 37.64716 | -5.81073 | 8652 ft | 258 kts | 91° |
| 2026-04-24 23:07 | 37.64537 | -5.78824 | 8335 ft | 258 kts | 103° |
| 2026-04-24 23:07 | 37.63661 | -5.76831 | 8053 ft | 268 kts | 133° |
| 2026-04-24 23:07 | 37.62111 | -5.75463 | 7752 ft | 277 kts | 156° |
| 2026-04-24 23:07 | 37.60228 | -5.75046 | 7432 ft | 276 kts | 182° |
| 2026-04-24 23:08 | 37.58320 | -5.75139 | 7109 ft | 272 kts | 171° |
| 2026-04-24 23:08 | 37.56630 | -5.74174 | 6797 ft | 271 kts | 134° |
| 2026-04-24 23:08 | 37.55647 | -5.72195 | 6492 ft | 268 kts | 107° |
| 2026-04-24 23:08 | 37.55068 | -5.69951 | 6092 ft | 273 kts | 108° |
| 2026-04-24 23:09 | 37.54273 | -5.67764 | 5741 ft | 276 kts | 117° |
| 2026-04-24 23:09 | 37.53218 | -5.65774 | 5396 ft | 267 kts | 127° |
| 2026-04-24 23:09 | 37.51994 | -5.64114 | 5071 ft | 251 kts | 136° |
| 2026-04-24 23:09 | 37.50689 | -5.62775 | 4802 ft | 234 kts | 144° |
| 2026-04-24 23:10 | 37.49369 | -5.61705 | 4582 ft | 216 kts | 150° |
| 2026-04-24 23:10 | 37.48065 | -5.60886 | 4308 ft | 204 kts | 157° |
| 2026-04-24 23:10 | 37.46765 | -5.60273 | 4087 ft | 199 kts | 163° |
| 2026-04-24 23:10 | 37.45413 | -5.59798 | 3885 ft | 202 kts | 172° |
| 2026-04-24 23:11 | 37.44056 | -5.59958 | 3637 ft | 192 kts | 203° |
| 2026-04-24 23:11 | 37.42920 | -5.60752 | 3524 ft | 185 kts | 221° |
| 2026-04-24 23:11 | 37.42113 | -5.61975 | 3402 ft | 182 kts | 251° |
| 2026-04-24 23:11 | 37.41962 | -5.63536 | 3349 ft | 182 kts | 269° |
| 2026-04-24 23:12 | 37.41913 | -5.65141 | 3245 ft | 184 kts | 269° |
| 2026-04-24 23:12 | 37.41884 | -5.66720 | 3174 ft | 173 kts | 270° |
| 2026-04-24 23:12 | 37.41873 | -5.68150 | 3050 ft | 156 kts | 270° |
| 2026-04-24 23:12 | 37.41867 | -5.69466 | 2853 ft | 147 kts | 270° |
| 2026-04-24 23:13 | 37.41862 | -5.70758 | 2693 ft | 148 kts | 270° |
| 2026-04-24 23:13 | 37.41859 | -5.72040 | 2496 ft | 145 kts | 269° |
| 2026-04-24 23:13 | 37.41855 | -5.72890 | 2366 ft | 143 kts | 269° |
| 2026-04-24 23:13 | 37.41850 | -5.74145 | 2182 ft | 145 kts | 269° |
| 2026-04-24 23:14 | 37.41846 | -5.75406 | 1996 ft | 143 kts | 268° |
| 2026-04-24 23:14 | 37.41841 | -5.76649 | 1799 ft | 141 kts | 268° |
| 2026-04-24 23:14 | 37.41837 | -5.77872 | 1636 ft | 141 kts | 268° |
| 2026-04-24 23:14 | 37.41831 | -5.79127 | 1464 ft | 145 kts | 268° |
| 2026-04-24 23:15 | 37.41828 | -5.80414 | 1269 ft | 146 kts | 268° |
| 2026-04-24 23:15 | 37.41823 | -5.81668 | 1066 ft | 145 kts | 267° |
| 2026-04-24 23:15 | 37.41807 | -5.82939 | 847 ft | 142 kts | 267° |
| 2026-04-24 23:15 | 37.41783 | -5.84177 | 676 ft | 144 kts | 270° |
| 2026-04-24 23:16 | 37.41805 | -5.85450 | 520 ft | 148 kts | 271° |
| 2026-04-24 23:16 | 37.41809 | -5.86760 | 282 ft | 152 kts | 269° |
| 2026-04-24 23:16 | 37.41801 | -5.88089 | 126 ft | 147 kts | 270° |
| 2026-04-24 23:16 | 37.41792 | -5.89255 | 105 ft | 111 kts | 270° |
| 2026-04-24 23:17 | 37.41793 | -5.89926 | 104 ft | 48 kts | 270° |
| 2026-04-24 23:17 | 37.41792 | -5.90175 | 102 ft | 18 kts | 270° |
| 2026-04-24 23:17 | 37.41822 | -5.90279 | 105 ft | 10 kts | 331° |
| 2026-04-24 23:17 | 37.41899 | -5.90302 | 103 ft | 13 kts | 358° |
| 2026-04-24 23:18 | 37.41960 | -5.90303 | 101 ft | 7 kts | 359° |
| 2026-04-24 23:18 | 37.42010 | -5.90294 | 102 ft | 7 kts | 32° |
| 2026-04-24 23:18 | 37.42040 | -5.90236 | 100 ft | 9 kts | 71° |
| 2026-04-24 23:18 | 37.42050 | -5.90151 | 99 ft | 10 kts | 88° |
| 2026-04-24 23:19 | 37.42051 | -5.90057 | 99 ft | 11 kts | 87° |
| 2026-04-24 23:19 | 37.42081 | -5.89978 | 101 ft | 8 kts | 47° |
| 2026-04-24 23:19 | 37.42116 | -5.89938 | 101 ft | 6 kts | 36° |
| 2026-04-24 23:19 | 37.42137 | -5.89938 | 101 ft | 3 kts | 341° |
| 2026-04-24 23:20 | 37.42155 | -5.89952 | 102 ft | 2 kts | 324° |
| 2026-04-24 23:20 | 37.42164 | -5.89960 | 102 ft | 1 kts | 324° |
| 2026-04-24 23:20 | 37.42172 | -5.89968 | 101 ft | 2 kts | 316° |
| 2026-04-24 23:20 | 37.42176 | -5.89973 | 101 ft | 1 kts | 316° |
| 2026-04-24 23:21 | 37.42181 | -5.89979 | 101 ft | 1 kts | 317° |
| 2026-04-24 23:21 | 37.42182 | -5.89980 | 101 ft | 0 kts | 317° |
| 2026-04-24 23:21 | 37.42185 | -5.89983 | 102 ft | 0 kts | 314° |